createdAt,value
2023-02-15T00:01:43.864Z,-1.30
2023-02-15T00:04:14.048Z,-1.30
2023-02-15T00:06:41.060Z,-1.30
2023-02-15T00:09:07.879Z,-1.30
2023-02-15T00:11:40.534Z,-1.30
2023-02-15T00:14:16.285Z,-1.30
2023-02-15T00:16:44.840Z,-1.30
2023-02-15T00:19:15.221Z,-1.40
2023-02-15T00:21:42.348Z,-1.50
2023-02-15T00:24:11.396Z,-1.60
2023-02-15T00:26:40.242Z,-1.60
2023-02-15T00:29:07.897Z,-1.50
2023-02-15T00:31:35.159Z,-1.50
2023-02-15T00:34:06.945Z,-1.50
2023-02-15T00:36:33.864Z,-1.40
2023-02-15T00:39:00.596Z,-1.40
2023-02-15T00:41:27.441Z,-1.50
2023-02-15T00:43:54.195Z,-1.50
2023-02-15T00:46:20.997Z,-1.50
2023-02-15T00:48:47.875Z,-1.50
2023-02-15T00:51:14.870Z,-1.60
2023-02-15T00:53:41.664Z,-1.60
2023-02-15T00:56:08.393Z,-1.70
2023-02-15T00:58:35.139Z,-1.70
2023-02-15T01:01:11.285Z,-1.80
2023-02-15T01:03:38.692Z,-1.70
2023-02-15T01:06:06.107Z,-1.60
2023-02-15T01:08:32.900Z,-1.60
2023-02-15T01:11:05.899Z,-1.60
2023-02-15T01:13:33.062Z,-1.70
2023-02-15T01:16:00.174Z,-1.70
2023-02-15T01:18:27.726Z,-1.60
2023-02-15T01:20:54.476Z,-1.50
2023-02-15T01:23:21.376Z,-1.60
2023-02-15T01:25:48.335Z,-1.60
2023-02-15T01:28:15.179Z,-1.60
2023-02-15T01:30:42.227Z,-1.50
2023-02-15T01:33:12.588Z,-1.60
2023-02-15T01:35:39.333Z,-1.60
2023-02-15T01:38:06.046Z,-1.60
2023-02-15T01:40:32.727Z,-1.50
2023-02-15T01:42:59.413Z,-1.50
2023-02-15T01:45:32.581Z,-1.60
2023-02-15T01:48:28.283Z,-1.50
2023-02-15T01:50:59.920Z,-1.50
2023-02-15T01:53:46.820Z,-1.60
2023-02-15T01:56:20.881Z,-1.70
2023-02-15T01:58:48.601Z,-1.60
2023-02-15T02:01:15.362Z,-1.60
2023-02-15T02:04:05.904Z,-1.60
2023-02-15T02:06:34.404Z,-1.80
2023-02-15T02:09:01.600Z,-1.80
2023-02-15T02:11:28.506Z,-1.80
2023-02-15T02:13:56.896Z,-1.90
2023-02-15T02:16:29.471Z,-1.90
2023-02-15T02:19:26.728Z,-1.90
2023-02-15T02:22:13.706Z,-1.90
2023-02-15T02:25:07.489Z,-1.90
2023-02-15T02:27:47.729Z,-1.80
2023-02-15T02:30:17.262Z,-1.90
2023-02-15T02:33:01.894Z,-1.90
2023-02-15T02:35:45.764Z,-2.00
2023-02-15T02:38:33.139Z,-2.00
2023-02-15T02:41:18.853Z,-2.00
2023-02-15T02:43:52.371Z,-2.00
2023-02-15T02:46:27.283Z,-2.10
2023-02-15T02:48:54.686Z,-2.10
2023-02-15T02:51:23.199Z,-2.10
2023-02-15T02:53:57.741Z,-2.10
2023-02-15T02:56:41.859Z,-2.10
2023-02-15T02:59:14.955Z,-2.10
2023-02-15T03:02:25.517Z,-2.00
2023-02-15T03:04:59.589Z,-2.00
2023-02-15T03:07:29.799Z,-2.00
2023-02-15T03:09:59.584Z,-1.90
2023-02-15T03:12:32.340Z,-1.90
2023-02-15T03:15:05.073Z,-1.90
2023-02-15T03:17:35.051Z,-1.90
2023-02-15T03:20:10.824Z,-1.90
2023-02-15T03:22:42.955Z,-1.90
2023-02-15T03:25:15.425Z,-1.90
2023-02-15T03:27:46.792Z,-1.90
2023-02-15T03:30:16.045Z,-1.80
2023-02-15T03:32:45.760Z,-1.90
2023-02-15T03:35:12.530Z,-2.00
2023-02-15T03:37:48.567Z,-2.00
2023-02-15T03:40:42.469Z,-2.10
2023-02-15T03:43:37.713Z,-2.10
2023-02-15T03:46:31.074Z,-2.00
2023-02-15T03:49:18.003Z,-2.00
2023-02-15T03:51:48.442Z,-2.00
2023-02-15T03:54:41.181Z,-2.00
2023-02-15T03:57:31.591Z,-2.00
2023-02-15T04:00:18.432Z,-2.10
2023-02-15T04:03:00.143Z,-2.10
2023-02-15T04:05:27.036Z,-2.10
2023-02-15T04:07:53.764Z,-2.10
2023-02-15T04:10:38.984Z,-2.10
2023-02-15T04:13:05.670Z,-2.10
2023-02-15T04:15:58.656Z,-2.00
2023-02-15T04:18:44.255Z,-2.10
2023-02-15T04:21:29.780Z,-2.10
2023-02-15T04:24:15.434Z,-2.10
2023-02-15T04:26:42.179Z,-2.10
2023-02-15T04:29:08.968Z,-2.20
2023-02-15T04:31:35.759Z,-2.20
2023-02-15T04:34:02.561Z,-2.30
2023-02-15T04:36:29.236Z,-2.30
2023-02-15T04:38:55.958Z,-2.30
2023-02-15T04:41:22.703Z,-2.30
2023-02-15T04:43:49.393Z,-2.40
2023-02-15T04:46:16.117Z,-2.30
2023-02-15T04:48:42.935Z,-2.30
2023-02-15T04:51:10.429Z,-2.40
2023-02-15T04:53:37.163Z,-2.30
2023-02-15T04:56:04.256Z,-2.30
2023-02-15T04:58:31.054Z,-2.20
2023-02-15T05:00:58.394Z,-2.30
2023-02-15T05:03:25.641Z,-2.30
2023-02-15T05:05:52.414Z,-2.30
2023-02-15T05:08:19.188Z,-2.40
2023-02-15T05:10:45.990Z,-2.40
2023-02-15T05:13:12.804Z,-2.40
2023-02-15T05:15:39.542Z,-2.30
2023-02-15T05:18:07.359Z,-2.30
2023-02-15T05:20:34.823Z,-2.30
2023-02-15T05:23:01.491Z,-2.20
2023-02-15T05:25:46.824Z,-2.30
2023-02-15T05:28:22.706Z,-2.20
2023-02-15T05:31:05.348Z,-2.20
2023-02-15T05:33:32.786Z,-2.20
2023-02-15T05:36:01.833Z,-2.30
2023-02-15T05:38:28.958Z,-2.20
2023-02-15T05:40:56.244Z,-2.30
2023-02-15T05:43:23.408Z,-2.20
2023-02-15T05:45:54.851Z,-2.30
2023-02-15T05:48:25.423Z,-2.30
2023-02-15T05:51:21.517Z,-2.20
2023-02-15T05:53:48.260Z,-2.30
2023-02-15T05:56:15.000Z,-2.20
2023-02-15T05:58:42.757Z,-2.20
2023-02-15T06:01:15.195Z,-2.20
2023-02-15T06:03:42.334Z,-2.10
2023-02-15T06:06:09.187Z,-2.10
2023-02-15T06:08:37.169Z,-2.20
2023-02-15T06:11:05.290Z,-2.10
2023-02-15T06:13:32.875Z,-2.20
2023-02-15T06:15:59.788Z,-2.20
2023-02-15T06:18:27.061Z,-2.40
2023-02-15T06:20:53.754Z,-2.40
2023-02-15T06:23:20.467Z,-2.40
2023-02-15T06:25:47.625Z,-2.40
2023-02-15T06:28:14.561Z,-2.40
2023-02-15T06:30:41.439Z,-2.40
2023-02-15T06:33:08.200Z,-2.40
2023-02-15T06:35:35.012Z,-2.40
2023-02-15T06:38:01.748Z,-2.40
2023-02-15T06:40:28.473Z,-2.30
2023-02-15T06:42:55.152Z,-2.30
2023-02-15T06:45:21.938Z,-2.30
2023-02-15T06:47:48.729Z,-2.40
2023-02-15T06:50:15.589Z,-2.30
2023-02-15T06:52:42.383Z,-2.20
2023-02-15T06:55:09.241Z,-2.30
2023-02-15T06:57:36.042Z,-2.30
2023-02-15T07:00:05.800Z,-2.20
2023-02-15T07:02:32.825Z,-2.20
2023-02-15T07:04:59.694Z,-2.20
2023-02-15T07:07:26.525Z,-2.10
2023-02-15T07:09:53.217Z,-2.10
2023-02-15T07:12:38.731Z,-2.10
2023-02-15T07:15:07.760Z,-2.10
2023-02-15T07:17:36.236Z,-2.10
2023-02-15T07:20:09.010Z,-2.10
2023-02-15T07:22:37.172Z,-2.10
2023-02-15T07:25:05.631Z,-2.10
2023-02-15T07:27:32.950Z,-2.00
2023-02-15T07:30:00.589Z,-2.00
2023-02-15T07:32:32.009Z,-2.00
2023-02-15T07:34:59.900Z,-2.00
2023-02-15T07:37:27.378Z,-2.00
2023-02-15T07:39:54.162Z,-2.10
2023-02-15T07:42:22.099Z,-2.10
2023-02-15T07:44:48.942Z,-2.10
2023-02-15T07:47:15.788Z,-2.00
2023-02-15T07:49:42.700Z,-2.00
2023-02-15T07:52:09.471Z,-2.00
2023-02-15T07:54:36.249Z,-2.00
2023-02-15T07:57:03.304Z,-1.90
2023-02-15T07:59:30.079Z,-1.90
2023-02-15T08:01:57.532Z,-1.80
2023-02-15T08:04:25.032Z,-1.70
2023-02-15T08:06:55.370Z,-1.70
2023-02-15T08:09:22.335Z,-1.70
2023-02-15T08:11:49.085Z,-1.60
2023-02-15T08:14:21.409Z,-1.60
2023-02-15T08:16:49.647Z,-1.60
2023-02-15T08:19:19.798Z,-1.60
2023-02-15T08:21:50.165Z,-1.50
2023-02-15T08:24:19.106Z,-1.60
2023-02-15T08:26:47.656Z,-1.60
2023-02-15T08:29:19.802Z,-1.50
2023-02-15T08:31:47.764Z,-1.40
2023-02-15T08:34:17.935Z,-1.40
2023-02-15T08:36:46.137Z,-1.50
2023-02-15T08:39:13.505Z,-1.40
2023-02-15T08:41:42.924Z,-1.30
2023-02-15T08:44:10.611Z,-1.30
2023-02-15T08:46:42.532Z,-1.20
2023-02-15T08:49:10.591Z,-1.30
2023-02-15T08:51:39.593Z,-1.20
2023-02-15T08:54:13.774Z,-1.30
2023-02-15T08:56:42.479Z,-1.30
2023-02-15T08:59:17.657Z,-1.40
2023-02-15T09:01:45.896Z,-1.20
2023-02-15T09:04:14.086Z,-1.20
2023-02-15T09:06:42.523Z,-1.10
2023-02-15T09:09:09.966Z,-0.90
2023-02-15T09:11:39.736Z,-0.70
2023-02-15T09:14:10.268Z,-0.80
2023-02-15T09:16:39.069Z,-0.70
2023-02-15T09:19:06.886Z,-0.60
2023-02-15T09:21:36.731Z,-0.50
2023-02-15T09:24:06.019Z,-0.40
2023-02-15T09:26:34.993Z,-0.40
2023-02-15T09:29:04.413Z,-0.40
2023-02-15T09:31:34.807Z,-0.30
2023-02-15T09:34:02.747Z,-0.30
2023-02-15T09:36:35.107Z,-0.20
2023-02-15T09:39:21.354Z,0.10
2023-02-15T09:42:20.051Z,0.10
2023-02-15T09:45:13.706Z,-0.10
2023-02-15T09:48:05.833Z,0.00
2023-02-15T09:50:57.279Z,0.20
2023-02-15T09:53:35.294Z,0.00
2023-02-15T09:56:39.743Z,0.10
2023-02-15T09:59:25.621Z,0.20
2023-02-15T10:01:58.474Z,0.20
2023-02-15T10:04:41.521Z,0.20
2023-02-15T10:07:43.946Z,0.40
2023-02-15T10:10:49.490Z,0.50
2023-02-15T10:13:47.555Z,0.70
2023-02-15T10:16:29.207Z,0.70
2023-02-15T10:19:06.260Z,0.80
2023-02-15T10:21:58.713Z,1.00
2023-02-15T10:24:48.899Z,1.00
2023-02-15T10:27:22.774Z,1.00
2023-02-15T10:30:02.098Z,0.90
2023-02-15T10:32:31.610Z,1.00
2023-02-15T10:35:23.104Z,1.20
2023-02-15T10:38:05.205Z,1.40
2023-02-15T10:41:03.475Z,1.40
2023-02-15T10:44:09.034Z,1.70
2023-02-15T10:46:58.687Z,1.60
2023-02-15T10:49:40.188Z,1.60
2023-02-15T10:52:09.708Z,1.60
2023-02-15T10:55:11.759Z,2.00
2023-02-15T10:58:06.224Z,2.10
2023-02-15T11:00:40.151Z,2.50
2023-02-15T11:03:30.196Z,2.70
2023-02-15T11:06:16.137Z,2.80
2023-02-15T11:08:53.140Z,2.90
2023-02-15T11:11:28.572Z,2.90
2023-02-15T11:14:01.444Z,2.60
2023-02-15T11:16:38.446Z,2.40
2023-02-15T11:19:36.860Z,2.50
2023-02-15T11:22:06.531Z,2.70
2023-02-15T11:24:41.234Z,3.40
2023-02-15T11:27:17.890Z,3.80
2023-02-15T11:30:10.426Z,4.00
2023-02-15T11:32:41.423Z,4.40
2023-02-15T11:35:10.938Z,4.90
2023-02-15T11:37:55.158Z,5.10
2023-02-15T11:40:24.127Z,4.90
2023-02-15T11:42:53.965Z,5.30
2023-02-15T11:45:32.502Z,6.10
2023-02-15T11:48:01.040Z,6.70
2023-02-15T11:50:33.570Z,6.20
2023-02-15T11:53:07.060Z,6.80
2023-02-15T11:55:36.058Z,6.40
2023-02-15T11:58:08.116Z,6.40
2023-02-15T12:00:46.700Z,6.60
2023-02-15T12:03:24.337Z,6.30
2023-02-15T12:05:58.138Z,6.30
2023-02-15T12:08:38.056Z,7.30
2023-02-15T12:11:08.756Z,7.20
2023-02-15T12:13:35.552Z,7.60
2023-02-15T12:16:11.353Z,7.70
2023-02-15T12:18:41.457Z,7.70
2023-02-15T12:21:12.804Z,8.10
2023-02-15T12:23:49.193Z,8.00
2023-02-15T12:26:24.049Z,8.50
2023-02-15T12:28:53.001Z,8.30
2023-02-15T12:31:32.924Z,8.30
2023-02-15T12:34:03.545Z,8.90
2023-02-15T12:36:55.358Z,9.00
2023-02-15T12:39:28.462Z,9.50
2023-02-15T12:41:55.256Z,9.40
2023-02-15T12:44:29.837Z,9.00
2023-02-15T12:47:06.738Z,9.10
2023-02-15T12:49:38.072Z,8.40
2023-02-15T12:52:21.029Z,8.60
2023-02-15T12:54:49.046Z,9.00
2023-02-15T12:57:29.286Z,9.30
2023-02-15T12:59:57.465Z,9.40
2023-02-15T13:02:52.441Z,9.70
2023-02-15T13:05:28.535Z,10.20
2023-02-15T13:07:59.124Z,9.90
2023-02-15T13:10:30.695Z,9.90
2023-02-15T13:12:58.967Z,9.50
2023-02-15T13:15:38.323Z,9.70
2023-02-15T13:18:11.406Z,10.00
2023-02-15T13:20:41.588Z,10.30
2023-02-15T13:23:30.052Z,10.00
2023-02-15T13:26:03.854Z,10.00
2023-02-15T13:28:41.891Z,10.30
2023-02-15T13:31:33.688Z,10.30
2023-02-15T13:34:29.375Z,9.90
2023-02-15T13:37:17.493Z,10.00
2023-02-15T13:40:08.880Z,10.30
2023-02-15T13:42:55.825Z,10.00
2023-02-15T13:45:24.326Z,9.70
2023-02-15T13:47:54.076Z,9.80
2023-02-15T13:50:57.956Z,10.20
2023-02-15T13:53:53.019Z,9.40
2023-02-15T13:56:49.007Z,9.70
2023-02-15T13:59:41.426Z,9.80
2023-02-15T14:02:23.048Z,9.40
2023-02-15T14:05:14.703Z,9.40
2023-02-15T14:08:06.151Z,9.70
2023-02-15T14:10:54.476Z,9.70
2023-02-15T14:13:35.849Z,10.10
2023-02-15T14:16:29.956Z,9.40
2023-02-15T14:19:10.101Z,9.30
2023-02-15T14:21:59.073Z,9.30
2023-02-15T14:24:47.394Z,9.20
2023-02-15T14:28:00.585Z,9.40
2023-02-15T14:30:34.116Z,9.50
2023-02-15T14:33:43.743Z,9.60
2023-02-15T14:36:17.256Z,9.70
2023-02-15T14:38:55.420Z,9.70
2023-02-15T14:41:33.496Z,9.50
2023-02-15T14:44:14.328Z,8.90
2023-02-15T14:46:55.924Z,8.70
2023-02-15T14:49:30.863Z,8.40
2023-02-15T14:52:00.853Z,8.30
2023-02-15T14:54:30.370Z,8.20
2023-02-15T14:57:03.361Z,8.10
2023-02-15T14:59:47.155Z,8.10
2023-02-15T15:02:19.692Z,7.90
2023-02-15T15:05:11.239Z,7.70
2023-02-15T15:07:49.200Z,7.80
2023-02-15T15:10:18.884Z,7.70
2023-02-15T15:12:58.410Z,7.70
2023-02-15T15:15:28.227Z,7.60
2023-02-15T15:17:57.984Z,7.50
2023-02-15T15:20:28.051Z,7.50
2023-02-15T15:23:16.489Z,7.40
2023-02-15T15:26:18.246Z,7.30
2023-02-15T15:28:44.958Z,7.20
2023-02-15T15:31:21.382Z,7.20
2023-02-15T15:34:19.880Z,7.20
2023-02-15T15:37:05.981Z,7.00
2023-02-15T15:39:47.731Z,6.90
2023-02-15T15:42:29.383Z,6.90
2023-02-15T15:45:12.059Z,6.70
2023-02-15T15:48:07.766Z,6.60
2023-02-15T15:50:35.296Z,6.30
2023-02-15T15:53:04.210Z,6.30
2023-02-15T15:55:34.646Z,6.20
2023-02-15T15:58:05.137Z,6.10
2023-02-15T16:00:52.229Z,6.00
2023-02-15T16:03:23.552Z,5.90
2023-02-15T16:05:55.293Z,5.60
2023-02-15T16:08:34.570Z,5.50
2023-02-15T16:11:11.764Z,5.40
2023-02-15T16:13:44.649Z,5.20
2023-02-15T16:16:14.140Z,5.20
2023-02-15T16:18:43.393Z,5.10
2023-02-15T16:21:19.260Z,5.10
2023-02-15T16:24:12.168Z,5.00
2023-02-15T16:27:05.154Z,4.90
2023-02-15T16:29:34.166Z,4.70
2023-02-15T16:32:05.189Z,4.70
2023-02-15T16:34:33.657Z,4.60
2023-02-15T16:37:22.957Z,4.50
2023-02-15T16:39:50.118Z,4.40
2023-02-15T16:42:18.436Z,4.20
2023-02-15T16:44:49.358Z,4.10
2023-02-15T16:47:29.790Z,4.00
2023-02-15T16:50:03.057Z,3.80
2023-02-15T16:52:30.740Z,3.70
2023-02-15T16:55:04.324Z,3.70
2023-02-15T16:57:36.237Z,3.50
2023-02-15T17:00:09.201Z,3.40
2023-02-15T17:02:55.967Z,3.20
2023-02-15T17:05:23.883Z,3.10
2023-02-15T17:08:18.271Z,3.10
2023-02-15T17:11:02.704Z,2.90
2023-02-15T17:13:30.373Z,2.70
2023-02-15T17:16:03.334Z,2.70
2023-02-15T17:18:33.641Z,2.60
2023-02-15T17:21:09.399Z,2.60
2023-02-15T17:23:45.806Z,2.50
2023-02-15T17:26:17.161Z,2.40
2023-02-15T17:28:51.709Z,2.30
2023-02-15T17:31:20.839Z,2.20
2023-02-15T17:33:48.637Z,2.10
2023-02-15T17:36:23.582Z,2.10
2023-02-15T17:38:59.294Z,1.90
2023-02-15T17:41:28.641Z,1.90
2023-02-15T17:43:55.705Z,1.80
2023-02-15T17:46:22.875Z,1.70
2023-02-15T17:48:51.815Z,1.70
2023-02-15T17:51:20.470Z,1.60
2023-02-15T17:54:06.853Z,1.50
2023-02-15T17:56:34.369Z,1.40
2023-02-15T17:59:01.162Z,1.40
2023-02-15T18:01:46.434Z,1.20
2023-02-15T18:04:33.549Z,1.10
2023-02-15T18:07:19.115Z,1.10
2023-02-15T18:10:04.556Z,1.00
2023-02-15T18:12:33.890Z,0.90
2023-02-15T18:15:03.735Z,0.80
2023-02-15T18:17:46.091Z,0.80
2023-02-15T18:20:20.424Z,0.70
2023-02-15T18:22:47.385Z,0.60
2023-02-15T18:25:16.753Z,0.60
2023-02-15T18:27:43.680Z,0.50
2023-02-15T18:30:16.093Z,0.40
2023-02-15T18:32:43.619Z,0.40
2023-02-15T18:35:19.463Z,0.40
2023-02-15T18:37:47.245Z,0.40
2023-02-15T18:40:27.252Z,0.30
2023-02-15T18:42:54.611Z,0.20
2023-02-15T18:45:32.910Z,0.10
2023-02-15T18:48:00.030Z,0.10
2023-02-15T18:50:31.232Z,0.10
2023-02-15T18:52:57.974Z,0.00
2023-02-15T18:55:28.758Z,0.00
2023-02-15T18:57:56.989Z,-0.10
2023-02-15T19:00:29.237Z,0.00
2023-02-15T19:02:57.217Z,-0.10
2023-02-15T19:05:27.423Z,-0.10
2023-02-15T19:07:54.926Z,-0.10
2023-02-15T19:10:25.091Z,-0.20
2023-02-15T19:12:52.962Z,-0.20
2023-02-15T19:15:23.493Z,-0.20
2023-02-15T19:17:51.171Z,-0.20
2023-02-15T19:20:19.500Z,-0.30
2023-02-15T19:22:49.123Z,-0.30
2023-02-15T19:25:21.013Z,-0.30
2023-02-15T19:27:48.211Z,-0.30
2023-02-15T19:30:24.627Z,-0.30
2023-02-15T19:32:51.413Z,-0.20
2023-02-15T19:35:21.827Z,-0.20
2023-02-15T19:38:00.309Z,-0.20
2023-02-15T19:40:33.196Z,-0.20
2023-02-15T19:43:00.239Z,-0.20
2023-02-15T19:45:28.857Z,-0.20
2023-02-15T19:47:56.362Z,-0.20
2023-02-15T19:50:25.892Z,-0.20
2023-02-15T19:52:53.040Z,-0.30
2023-02-15T19:55:34.202Z,-0.20
2023-02-15T19:58:02.319Z,-0.20
2023-02-15T20:00:32.023Z,-0.20
2023-02-15T20:02:59.790Z,-0.20
2023-02-15T20:05:31.246Z,-0.20
2023-02-15T20:07:58.446Z,-0.20
2023-02-15T20:10:29.006Z,-0.20
2023-02-15T20:12:56.233Z,-0.30
2023-02-15T20:15:31.906Z,-0.20
2023-02-15T20:18:00.104Z,-0.30
2023-02-15T20:20:42.875Z,-0.30
2023-02-15T20:23:38.987Z,-0.30
2023-02-15T20:26:18.324Z,-0.30
2023-02-15T20:28:46.417Z,-0.20
2023-02-15T20:31:17.723Z,-0.30
2023-02-15T20:33:44.576Z,-0.30
2023-02-15T20:36:16.578Z,-0.30
2023-02-15T20:38:44.194Z,-0.40
2023-02-15T20:41:35.031Z,-0.40
2023-02-15T20:44:13.896Z,-0.60
2023-02-15T20:46:40.660Z,-0.50
2023-02-15T20:49:07.410Z,-0.50
2023-02-15T20:51:34.286Z,-0.50
2023-02-15T20:54:01.461Z,-0.50
2023-02-15T20:56:28.236Z,-0.50
2023-02-15T20:58:55.066Z,-0.50
2023-02-15T21:01:21.901Z,-0.60
2023-02-15T21:03:48.901Z,-0.60
2023-02-15T21:06:16.531Z,-0.60
2023-02-15T21:08:43.818Z,-0.60
2023-02-15T21:11:22.149Z,-0.60
2023-02-15T21:13:50.807Z,-0.60
2023-02-15T21:16:17.747Z,-0.60
2023-02-15T21:18:44.567Z,-0.70
2023-02-15T21:21:22.292Z,-0.80
2023-02-15T21:23:49.480Z,-0.70
2023-02-15T21:26:19.927Z,-0.70
2023-02-15T21:28:47.342Z,-0.70
2023-02-15T21:31:21.012Z,-0.70
2023-02-15T21:33:47.824Z,-0.70
2023-02-15T21:36:24.201Z,-0.70
2023-02-15T21:38:51.223Z,-0.60
2023-02-15T21:41:41.243Z,-0.60
2023-02-15T21:44:41.391Z,-0.60
2023-02-15T21:47:40.249Z,-0.70
2023-02-15T21:50:29.387Z,-0.70
2023-02-15T21:52:56.458Z,-0.60
2023-02-15T21:55:23.218Z,-0.70
2023-02-15T21:57:49.932Z,-0.70
2023-02-15T22:00:22.045Z,-0.60
2023-02-15T22:02:51.890Z,-0.60
2023-02-15T22:05:26.794Z,-0.60
2023-02-15T22:07:53.578Z,-0.70
2023-02-15T22:10:22.625Z,-0.70
2023-02-15T22:12:50.699Z,-0.70
2023-02-15T22:15:23.228Z,-0.70
2023-02-15T22:17:51.087Z,-0.80
2023-02-15T22:20:20.785Z,-0.90
2023-02-15T22:22:48.143Z,-1.10
2023-02-15T22:25:17.140Z,-1.10
2023-02-15T22:27:45.742Z,-1.00
2023-02-15T22:30:21.431Z,-1.00
2023-02-15T22:32:48.842Z,-1.00
2023-02-15T22:35:23.137Z,-0.90
2023-02-15T22:37:49.895Z,-1.00
2023-02-15T22:40:18.313Z,-0.90
2023-02-15T22:42:52.733Z,-0.90
2023-02-15T22:45:25.122Z,-0.80
2023-02-15T22:47:54.248Z,-0.90
2023-02-15T22:50:32.204Z,-0.90
2023-02-15T22:53:03.559Z,-1.00
2023-02-15T22:55:36.923Z,-1.20
2023-02-15T22:58:04.328Z,-1.20
2023-02-15T23:00:40.579Z,-1.30
2023-02-15T23:03:18.565Z,-1.30
2023-02-15T23:05:46.938Z,-1.40
2023-02-15T23:08:13.836Z,-1.30
2023-02-15T23:10:42.471Z,-1.30
2023-02-15T23:13:25.285Z,-1.30
2023-02-15T23:15:56.757Z,-1.20
2023-02-15T23:18:41.747Z,-1.30
2023-02-15T23:21:31.152Z,-1.30
2023-02-15T23:24:09.740Z,-1.30
2023-02-15T23:26:36.474Z,-1.30
2023-02-15T23:29:04.016Z,-1.50
2023-02-15T23:31:33.457Z,-1.40
2023-02-15T23:34:02.383Z,-1.40
2023-02-15T23:36:30.686Z,-1.50
2023-02-15T23:39:25.360Z,-1.50
2023-02-15T23:41:52.209Z,-1.50
2023-02-15T23:44:19.380Z,-1.60
2023-02-15T23:46:47.319Z,-1.60
2023-02-15T23:49:16.647Z,-1.60
2023-02-15T23:51:46.074Z,-1.60
2023-02-15T23:54:14.295Z,-1.70
2023-02-15T23:56:42.979Z,-1.70
2023-02-15T23:59:20.318Z,-1.70
